Time;durP1;ratioP1;P1;durP2;ratioP2;P2;SDS_P1;SDS_P2;PMS_P1;PMS_P2;Temp;Humidity;BMP_temperature;BMP_pressure;BME280_temperature;BME280_humidity;BME280_pressure;Samples;Min_cycle;Max_cycle;Signal;HPM_P1;HPM_P2
2022/01/21 00:00:11;;;;;;;;;;;;;;;-142.75;100.00;79941.75;5032164;28;20398;-68
2022/01/21 00:02:38;;;;;;;20.27;2.00;;;;;;;-142.75;100.00;79937.81;5032105;28;19913;-68
2022/01/21 00:05:03;;;;;;;17.37;2.43;;;;;;;-142.75;100.00;79924.00;5031694;28;20032;-68
2022/01/21 00:07:29;;;;;;;9.32;1.77;;;;;;;-142.75;100.00;79922.03;5032013;28;20025;-67
2022/01/21 00:09:54;;;;;;;13.85;2.55;;;;;;;-142.75;100.00;79918.09;5031303;28;20025;-67
2022/01/21 00:12:19;;;;;;;8.50;1.00;;;;;;;-142.75;100.00;79914.16;5060840;22;20107;-65
2022/01/21 00:14:46;;;;;;;10.05;1.15;;;;;;;-142.75;100.00;79898.41;5050390;28;20350;-67
2022/01/21 00:17:11;;;;;;;;;;;;;;;-142.75;100.00;79898.41;5034184;28;20048;-68
2022/01/21 00:19:39;;;;;;;7.33;1.00;;;;;;;-142.75;100.00;79908.25;5051045;28;19943;-67
2022/01/21 00:30:19;;;;;;;9.43;1.10;;;;;;;-142.75;100.00;79898.41;5051267;28;20040;-67
2022/01/21 00:32:48;;;;;;;8.20;1.30;;;;;;;-142.75;100.00;79910.22;5051104;28;20562;-67
2022/01/21 00:35:15;;;;;;;13.03;1.40;;;;;;;-142.75;100.00;79925.97;5051209;28;20017;-67
2022/01/21 00:37:41;;;;;;;9.77;1.80;;;;;;;-142.75;100.00;79931.88;5051227;28;20082;-66
2022/01/21 00:40:10;;;;;;;8.68;1.45;;;;;;;-142.75;100.00;79925.97;5032942;28;20181;-66
2022/01/21 00:45:08;;;;;;;7.67;1.30;;;;;;;-142.75;100.00;79941.75;5051273;28;20029;-67
2022/01/21 00:47:33;;;;;;;7.07;1.17;;;;;;;-142.75;100.00;79937.81;5051732;28;20029;-66
2022/01/21 00:49:59;;;;;;;15.90;1.93;;;;;;;-142.75;100.00;79959.47;5032866;28;20607;-66
2022/01/21 00:52:24;;;;;;;10.47;1.17;;;;;;;-142.75;100.00;79981.16;5051029;28;20272;-67
2022/01/21 00:54:49;;;;;;;9.07;1.77;;;;;;;-142.75;100.00;79975.22;5050787;28;20029;-67
2022/01/21 00:57:15;;;;;;;11.93;1.35;;;;;;;-142.75;100.00;79975.22;5050766;28;20032;-67
2022/01/21 00:59:40;;;;;;;12.32;1.85;;;;;;;-142.75;100.00;79973.25;5032550;28;20021;-68
2022/01/21 01:02:05;;;;;;;16.00;1.98;;;;;;;-142.75;100.00;79973.25;5050852;28;20470;-67
2022/01/21 01:04:31;;;;;;;11.77;1.80;;;;;;;-142.75;100.00;79969.31;5050426;28;20025;-68
2022/01/21 01:06:57;;;;;;;14.90;1.88;;;;;;;-142.75;100.00;79975.22;5032837;28;20116;-67
2022/01/21 01:09:22;;;;;;;12.98;2.15;;;;;;;-142.75;100.00;79969.31;5049977;28;20024;-67
2022/01/21 01:20:00;;;;;;;7.13;1.63;;;;;;;-142.75;100.00;79937.81;5030359;28;20087;-67
2022/01/21 01:22:41;;;;;;;15.40;1.40;;;;;;;-142.75;100.00;79929.91;5013019;28;20147;-66
2022/01/21 01:27:51;;;;;;;8.30;1.23;;;;;;;-142.75;100.00;79939.78;5030367;28;20419;-66
2022/01/21 01:30:19;;;;;;;13.05;1.88;;;;;;;-142.75;100.00;79945.69;5030434;28;20034;-67
2022/01/21 01:32:46;;;;;;;12.73;2.07;;;;;;;-142.75;100.00;79945.69;5030291;28;20410;-66
2022/01/21 01:35:14;;;;;;;10.50;1.07;;;;;;;-142.75;100.00;79953.56;5012792;28;20437;-66
2022/01/21 01:40:24;;;;;;;11.68;1.92;;;;;;;-142.75;100.00;79949.63;5030173;28;20030;-67
2022/01/21 01:50:48;;;;;;;9.43;1.30;;;;;;;-142.75;100.00;79949.63;5030402;28;20041;-66
2022/01/21 01:53:17;;;;;;;9.30;2.27;;;;;;;-142.75;100.00;79949.63;5010875;28;20128;-67
2022/01/21 01:55:43;;;;;;;10.53;1.77;;;;;;;-142.75;100.00;79945.69;5012223;28;20040;-67
2022/01/21 01:58:12;;;;;;;11.63;1.55;;;;;;;-142.75;100.00;79945.69;5012271;28;20437;-67
2022/01/21 02:00:38;;;;;;;9.73;1.30;;;;;;;-142.75;100.00;79935.84;5029923;28;20079;-66
2022/01/21 02:03:05;;;;;;;9.02;1.92;;;;;;;-142.75;100.00;79937.81;5029878;28;20482;-67
2022/01/21 02:05:31;;;;;;;10.37;1.30;;;;;;;-142.75;100.00;79935.84;5030062;28;20387;-66
2022/01/21 02:07:56;;;;;;;4.90;1.00;;;;;;;-142.75;100.00;79941.75;5029668;28;20305;-67
2022/01/21 02:10:22;;;;;;;11.87;1.60;;;;;;;-142.75;100.00;79945.69;5012315;28;20645;-67
2022/01/21 02:12:48;;;;;;;8.93;1.50;;;;;;;-142.75;100.00;79933.84;5029750;28;20025;-67
2022/01/21 02:15:13;;;;;;;7.50;1.58;;;;;;;-142.75;100.00;79953.56;5029999;28;20026;-66
2022/01/21 02:22:50;;;;;;;15.23;1.80;;;;;;;-142.75;100.00;79961.44;5045049;28;20036;-67
2022/01/21 02:25:17;;;;;;;8.33;1.00;;;;;;;-142.75;100.00;79957.50;5049544;28;20017;-67
2022/01/21 02:27:55;;;;;;;8.87;1.20;;;;;;;-142.75;100.00;79953.56;5049708;28;20021;-67
2022/01/21 02:30:23;;;;;;;6.77;1.50;;;;;;;-142.75;100.00;79961.44;5046826;28;20036;-68
2022/01/21 02:32:51;;;;;;;6.00;0.90;;;;;;;-142.75;100.00;79957.50;5029704;28;20104;-68
2022/01/21 02:35:18;;;;;;;4.13;0.90;;;;;;;-142.75;100.00;79953.56;5029683;28;20025;-67
2022/01/21 02:37:44;;;;;;;7.27;0.90;;;;;;;-142.75;100.00;79957.50;5012043;28;20029;-67
2022/01/21 02:40:10;;;;;;;;;;;;;;;-142.75;100.00;79969.31;5029755;28;20083;-66
2022/01/21 02:42:36;;;;;;;12.47;1.13;;;;;;;-142.75;100.00;79981.16;5029628;28;20422;-67
2022/01/21 02:45:04;;;;;;;9.63;1.52;;;;;;;-142.75;100.00;79963.41;5029788;28;20061;-67
2022/01/21 02:47:30;;;;;;;10.97;1.33;;;;;;;-142.75;100.00;79965.38;5029964;28;20029;-67
2022/01/21 02:49:55;;;;;;;6.97;1.38;;;;;;;-142.75;100.00;79969.31;5013745;28;20183;-67
2022/01/21 02:52:24;;;;;;;9.65;1.45;;;;;;;-142.75;100.00;79959.47;5033151;28;20103;-67
2022/01/21 02:54:49;;;;;;;5.23;0.97;;;;;;;-142.75;100.00;79955.53;5033478;28;20479;-67
2022/01/21 02:57:15;;;;;;;12.85;1.50;;;;;;;-142.75;100.00;79967.34;5033246;28;20164;-67
2022/01/21 02:59:40;;;;;;;9.77;1.63;;;;;;;-142.75;100.00;79959.47;5015272;28;20024;-67
2022/01/21 03:02:05;;;;;;;6.85;1.13;;;;;;;-142.75;100.00;79967.34;5033074;28;20061;-67
2022/01/21 03:06:56;;;;;;;6.28;1.20;;;;;;;-142.75;100.00;79967.34;5033112;28;20305;-67
2022/01/21 03:09:22;;;;;;;7.70;0.75;;;;;;;-142.75;100.00;79973.25;5032638;28;20030;-67
2022/01/21 03:11:47;;;;;;;10.18;2.47;;;;;;;-142.75;100.00;79969.31;5032612;28;20025;-67
2022/01/21 03:14:12;;;;;;;6.13;0.80;;;;;;;-142.75;100.00;79975.22;5032991;28;20032;-67
2022/01/21 03:16:38;;;;;;;9.90;1.02;;;;;;;-142.75;100.00;79992.97;5032815;28;20029;-67
2022/01/21 03:19:03;;;;;;;11.45;0.95;;;;;;;-142.75;100.00;80022.50;5015397;28;20017;-67
2022/01/21 03:21:29;;;;;;;8.43;1.45;;;;;;;-142.75;100.00;80024.50;5032638;28;20108;-67
2022/01/21 03:23:55;;;;;;;8.30;1.30;;;;;;;-142.75;100.00;80024.50;5032779;28;20037;-67
2022/01/21 03:26:22;;;;;;;;;;;;;;;-142.75;100.00;80034.34;5033294;28;20021;-68
2022/01/21 03:28:51;;;;;;;5.63;1.13;;;;;;;-142.75;100.00;80032.38;5015739;28;19920;-67
2022/01/21 03:31:17;;;;;;;6.73;1.07;;;;;;;-142.75;100.00;80020.53;5032472;28;20075;-66
2022/01/21 03:33:43;;;;;;;;;;;;;;;-142.75;100.00;80008.72;5015167;28;20061;-66
2022/01/21 03:36:09;;;;;;;7.43;1.10;;;;;;;-142.75;100.00;80004.78;5032646;28;20331;-67
2022/01/21 03:38:35;;;;;;;7.67;1.67;;;;;;;-142.75;100.00;80000.84;5032223;28;20029;-66
2022/01/21 03:41:01;;;;;;;13.75;1.40;;;;;;;-142.75;100.00;80022.50;5032447;28;20402;-67
2022/01/21 03:43:27;;;;;;;7.35;0.93;;;;;;;-142.75;100.00;80008.72;5014660;28;20021;-67
2022/01/21 03:45:52;;;;;;;10.38;1.55;;;;;;;-142.75;100.00;80010.69;5032393;28;20037;-67
2022/01/21 03:48:19;;;;;;;6.47;0.63;;;;;;;-142.75;100.00;80006.75;5032413;28;20041;-67
2022/01/21 03:50:45;;;;;;;7.73;1.43;;;;;;;-142.75;100.00;80014.63;5032285;28;20112;-67
2022/01/21 03:53:11;;;;;;;10.05;1.30;;;;;;;-142.75;100.00;80020.53;5032115;28;20211;-67
2022/01/21 03:55:37;;;;;;;8.75;1.20;;;;;;;-142.75;100.00;80018.56;5032232;28;20025;-67
2022/01/21 03:58:03;;;;;;;;;;;;;;;-142.75;100.00;80022.50;5032156;28;20044;-67
2022/01/21 04:00:33;;;;;;;5.88;0.88;;;;;;;-142.75;100.00;80032.38;5031742;28;20074;-67
2022/01/21 04:02:59;;;;;;;7.73;1.23;;;;;;;-142.75;100.00;80020.53;5031879;28;20036;-66
2022/01/21 04:05:26;;;;;;;8.13;1.53;;;;;;;-142.75;100.00;80024.50;5014317;28;20024;-67
2022/01/21 04:07:51;;;;;;;6.40;1.57;;;;;;;-142.75;100.00;80046.16;5031387;28;20075;-66
2022/01/21 04:10:16;;;;;;;9.52;1.48;;;;;;;-142.75;100.00;80044.19;5014093;28;20037;-66
2022/01/21 04:12:42;;;;;;;10.35;1.13;;;;;;;-142.75;100.00;80028.44;5031638;28;20037;-67
2022/01/21 04:15:08;;;;;;;5.55;1.10;;;;;;;-142.75;100.00;80040.25;5031764;28;20025;-67
2022/01/21 04:17:33;;;;;;;11.70;1.45;;;;;;;-142.75;100.00;80036.31;5032233;28;20048;-67
2022/01/21 04:19:58;;;;;;;8.65;1.25;;;;;;;-142.75;100.00;80044.19;5031587;28;20100;-67
2022/01/21 04:22:24;;;;;;;7.83;1.00;;;;;;;-142.75;100.00;80040.25;5031856;28;20033;-67
2022/01/21 04:24:50;;;;;;;14.85;1.45;;;;;;;-142.75;100.00;80036.31;5031815;28;20033;-67
2022/01/21 04:27:18;;;;;;;7.47;1.02;;;;;;;-142.75;100.00;80024.50;5031585;28;20025;-67
2022/01/21 04:29:44;;;;;;;6.23;0.80;;;;;;;-142.75;100.00;80032.38;5031083;28;20021;-67
2022/01/21 04:32:09;;;;;;;6.35;1.13;;;;;;;-142.75;100.00;80046.16;5031439;28;20029;-67
2022/01/21 04:34:35;;;;;;;7.75;0.90;;;;;;;-142.75;100.00;80032.38;5031339;28;20035;-67
2022/01/21 04:37:01;;;;;;;18.50;1.48;;;;;;;-142.75;100.00;80036.31;5031515;28;20057;-67
2022/01/21 04:39:33;;;;;;;9.93;1.03;;;;;;;-142.75;100.00;80034.34;5013247;28;20548;-67
2022/01/21 04:47:26;;;;;;;8.37;1.07;;;;;;;-142.75;100.00;80054.03;5031495;28;20091;-67
2022/01/21 04:49:52;;;;;;;7.53;1.05;;;;;;;-142.75;100.00;80048.13;5031234;28;20025;-67
2022/01/21 04:52:17;;;;;;;6.80;1.10;;;;;;;-142.75;100.00;80044.19;5041956;28;20036;-66
2022/01/21 04:54:43;;;;;;;5.18;0.73;;;;;;;-142.75;100.00;80036.31;5051087;28;20021;-68
2022/01/21 04:57:08;;;;;;;17.85;2.75;;;;;;;-142.75;100.00;80030.41;5050941;28;20024;-67
2022/01/21 04:59:36;;;;;;;5.88;0.60;;;;;;;-142.75;100.00;80026.47;5050507;28;20078;-66
2022/01/21 05:02:02;;;;;;;7.83;1.30;;;;;;;-142.75;100.00;80032.38;5050587;28;20029;-67
2022/01/21 05:04:27;;;;;;;9.65;1.20;;;;;;;-142.75;100.00;80040.25;5049831;28;20025;-67
2022/01/21 05:06:54;;;;;;;6.97;1.02;;;;;;;-142.75;100.00;80065.84;5050878;28;20024;-67
2022/01/21 05:09:22;;;;;;;7.47;1.57;;;;;;;-142.75;100.00;80071.78;5032453;28;20052;-67
2022/01/21 05:11:51;;;;;;;8.97;1.30;;;;;;;-142.75;100.00;80087.53;5049755;28;20029;-67
2022/01/21 05:14:23;;;;;;;5.60;1.10;;;;;;;-142.75;100.00;80067.84;5032427;28;20021;-67
2022/01/21 05:16:51;;;;;;;6.87;1.23;;;;;;;-142.75;100.00;80063.88;5050491;28;20028;-67
2022/01/21 05:19:18;;;;;;;5.70;1.30;;;;;;;-142.75;100.00;80048.13;5032840;28;20021;-67
2022/01/21 05:21:48;;;;;;;10.87;1.23;;;;;;;-142.75;100.00;80044.19;5032499;28;20024;-67
2022/01/21 05:24:16;;;;;;;9.20;3.03;;;;;;;-142.75;100.00;80040.25;5050366;28;20025;-66
2022/01/21 05:26:52;;;;;;;5.67;0.83;;;;;;;-142.75;100.00;80032.38;5050315;28;20053;-67
2022/01/21 05:29:17;;;;;;;13.52;1.33;;;;;;;-142.75;100.00;80020.53;5049753;28;20033;-66
2022/01/21 05:31:42;;;;;;;10.40;1.60;;;;;;;-142.75;100.00;80024.50;5050370;28;20029;-66
2022/01/21 05:34:08;;;;;;;10.27;1.33;;;;;;;-142.75;100.00;80028.44;5050355;28;20052;-67
2022/01/21 05:36:37;;;;;;;7.90;1.50;;;;;;;-142.75;100.00;80034.34;5050228;28;20036;-66
2022/01/21 05:39:03;;;;;;;8.67;2.13;;;;;;;-142.75;100.00;80028.44;5049758;28;20614;-67
2022/01/21 05:41:28;;;;;;;;;;;;;;;-142.75;100.00;80030.41;5032533;28;20028;-65
2022/01/21 05:44:01;;;;;;;7.87;1.30;;;;;;;-142.75;100.00;80024.50;5050049;28;20314;-67
2022/01/21 05:49:11;;;;;;;5.60;1.23;;;;;;;-142.75;100.00;80008.72;5050323;28;20044;-66
2022/01/21 05:51:38;;;;;;;14.60;1.40;;;;;;;-142.75;100.00;80004.78;5049904;28;20028;-67
2022/01/21 05:54:04;;;;;;;6.70;1.00;;;;;;;-142.75;100.00;80002.81;5032074;28;20031;-67
2022/01/21 05:56:30;;;;;;;13.45;1.23;;;;;;;-142.75;100.00;80000.84;5049628;28;20112;-67
2022/01/21 05:58:56;;;;;;;10.23;1.60;;;;;;;-142.75;100.00;79996.91;5049713;28;20501;-67
2022/01/21 06:01:21;;;;;;;9.13;1.10;;;;;;;-142.75;100.00;79989.03;5049981;28;20049;-67
2022/01/21 06:03:46;;;;;;;11.43;1.00;;;;;;;-142.75;100.00;79987.06;5049557;28;20271;-66
2022/01/21 06:06:12;;;;;;;9.23;1.27;;;;;;;-142.75;100.00;79979.16;5031948;28;20052;-67
2022/01/21 06:08:38;;;;;;;4.90;1.13;;;;;;;-142.75;100.00;79981.16;5049582;28;20024;-67
2022/01/21 06:11:03;;;;;;;7.32;1.27;;;;;;;-142.75;100.00;79981.16;5049426;28;20361;-67
2022/01/21 06:13:29;;;;;;;7.82;1.23;;;;;;;-142.75;100.00;79969.31;5036321;23;20475;-68
2022/01/21 06:15:56;;;;;;;7.47;1.40;;;;;;;-142.75;100.00;79953.56;5028533;28;20041;-68
2022/01/21 06:18:21;;;;;;;5.13;1.00;;;;;;;-142.75;100.00;79959.47;5030136;28;20029;-68
2022/01/21 06:20:46;;;;;;;8.63;1.00;;;;;;;-142.75;100.00;79957.50;5029779;28;20036;-68
2022/01/21 06:23:12;;;;;;;10.70;1.00;;;;;;;-142.75;100.00;79953.56;5030762;28;20313;-68
2022/01/21 06:25:37;;;;;;;7.43;1.05;;;;;;;-142.75;100.00;79949.63;5021501;28;20025;-68
2022/01/21 06:28:03;;;;;;;7.60;1.08;;;;;;;-142.75;100.00;79941.75;5033462;28;20029;-68
2022/01/21 06:30:28;;;;;;;6.60;1.05;;;;;;;-142.75;100.00;79931.88;5033525;28;20034;-68
2022/01/21 06:32:53;;;;;;;14.60;1.40;;;;;;;-142.75;100.00;79925.97;5033806;28;20022;-68
2022/01/21 06:35:18;;;;;;;5.28;0.98;;;;;;;-142.75;100.00;79927.94;5033605;28;20029;-68
2022/01/21 06:37:44;;;;;;;10.35;1.50;;;;;;;-142.75;100.00;79922.03;5033477;28;20056;-69
2022/01/21 06:40:10;;;;;;;5.05;0.90;;;;;;;-142.75;100.00;79922.03;5015669;28;20029;-68
2022/01/21 06:42:36;;;;;;;11.98;1.45;;;;;;;-142.75;100.00;79914.16;5033525;28;20029;-68
2022/01/21 06:45:02;;;;;;;;;;;;;;;-142.75;100.00;79912.19;5034113;28;20025;-68
2022/01/21 06:47:28;;;;;;;6.73;1.10;;;;;;;-142.75;100.00;79918.09;5026314;28;19917;-68
2022/01/21 06:49:54;;;;;;;13.83;1.33;;;;;;;-142.75;100.00;79920.06;5013898;28;20026;-68
2022/01/21 06:52:21;;;;;;;7.72;1.35;;;;;;;-142.75;100.00;79918.09;5014247;28;20384;-68
2022/01/21 06:54:47;;;;;;;11.33;1.30;;;;;;;-142.75;100.00;79912.19;5014219;28;20051;-68
2022/01/21 06:57:12;;;;;;;5.43;1.00;;;;;;;-142.75;100.00;79925.97;4999095;28;20101;-68
2022/01/21 06:59:37;;;;;;;5.50;0.87;;;;;;;-142.75;100.00;79924.00;5033500;28;20017;-69
2022/01/21 07:02:03;;;;;;;5.97;1.13;;;;;;;-142.75;100.00;79914.16;5033766;28;20642;-68
2022/01/21 07:04:28;;;;;;;7.68;1.30;;;;;;;-142.75;100.00;79914.16;5033825;28;20039;-68
2022/01/21 07:06:57;;;;;;;5.97;1.67;;;;;;;-142.75;100.00;79918.09;5033774;28;20108;-69
2022/01/21 07:09:23;;;;;;;5.63;1.00;;;;;;;-142.75;100.00;79927.94;5033847;28;20029;-68
2022/01/21 07:11:48;;;;;;;6.30;1.10;;;;;;;-142.75;100.00;79929.91;5033594;28;20029;-68
2022/01/21 07:14:13;;;;;;;12.57;1.05;;;;;;;-142.75;100.00;79924.00;5033656;28;20036;-68
2022/01/21 07:16:38;;;;;;;7.43;1.40;;;;;;;-142.75;100.00;79914.16;5033546;28;20029;-68
2022/01/21 07:19:04;;;;;;;9.57;1.70;;;;;;;-142.75;100.00;79910.22;5033271;28;20029;-68
2022/01/21 07:21:29;;;;;;;12.20;1.42;;;;;;;-142.75;100.00;79906.28;5033453;28;20029;-68
2022/01/21 07:23:54;;;;;;;4.78;0.93;;;;;;;-142.75;100.00;79902.34;5013705;28;20033;-68
2022/01/21 07:26:20;;;;;;;10.07;3.00;;;;;;;-142.75;100.00;79900.38;5013753;28;20026;-68
2022/01/21 07:28:45;;;;;;;13.25;1.17;;;;;;;-142.75;100.00;79904.31;5013318;28;20033;-68
2022/01/21 07:31:10;;;;;;;10.00;2.15;;;;;;;-142.75;100.00;79906.28;5013751;28;20029;-68
2022/01/21 07:33:37;;;;;;;9.55;1.27;;;;;;;-142.75;100.00;79910.22;4996338;28;20018;-68
2022/01/21 07:36:03;;;;;;;10.27;2.33;;;;;;;-142.75;100.00;79914.16;5012792;28;20506;-68
2022/01/21 07:38:28;;;;;;;6.30;1.08;;;;;;;-142.75;100.00;79922.03;5013324;28;20033;-68
2022/01/21 07:40:54;;;;;;;11.52;1.52;;;;;;;-142.75;100.00;79929.91;5013428;28;20121;-68
2022/01/21 07:43:19;;;;;;;9.90;1.87;;;;;;;-142.75;100.00;79935.84;5013258;28;20418;-68
2022/01/21 07:45:44;;;;;;;7.47;1.50;;;;;;;-142.75;100.00;79929.91;4995848;28;20280;-69
2022/01/21 07:48:10;;;;;;;8.15;2.28;;;;;;;-142.75;100.00;79937.81;5013116;28;20411;-68
2022/01/21 07:50:36;;;;;;;13.07;3.65;;;;;;;-142.75;100.00;79931.88;5013292;28;20034;-68
2022/01/21 07:53:03;;;;;;;5.80;1.77;;;;;;;-142.75;100.00;79937.81;5012394;28;20079;-69
2022/01/21 07:55:28;;;;;;;8.50;1.77;;;;;;;-142.75;100.00;79941.75;5012158;28;20029;-67
2022/01/21 07:57:53;;;;;;;6.30;1.88;;;;;;;-142.75;100.00;79945.69;5011708;28;20022;-68
2022/01/21 08:00:19;;;;;;;8.98;1.73;;;;;;;-142.75;100.00;79945.69;5012013;28;20037;-68
2022/01/21 08:02:45;;;;;;;11.75;4.60;;;;;;;-142.75;100.00;79943.72;5012014;28;20079;-67
2022/01/21 08:05:11;;;;;;;14.60;5.65;;;;;;;-142.75;100.00;79937.81;5011456;28;20526;-68
2022/01/21 08:07:36;;;;;;;9.23;3.75;;;;;;;-142.75;100.00;79937.81;5011777;28;20037;-68
2022/01/21 08:10:03;;;;;;;8.65;2.80;;;;;;;-142.75;100.00;79914.16;5010082;28;20095;-68
2022/01/21 08:12:28;;;;;;;10.60;2.70;;;;;;;-142.75;100.00;79890.50;5011808;28;20458;-71
2022/01/21 08:14:53;;;;;;;10.75;2.33;;;;;;;-142.75;100.00;79862.94;5011748;28;20113;-68
2022/01/21 08:17:19;;;;;;;6.40;1.88;;;;;;;-142.75;100.00;79835.34;5012069;28;20029;-68
2022/01/21 08:19:44;;;;;;;13.82;1.92;;;;;;;-142.75;100.00;79807.78;5020085;28;20036;-68
2022/01/21 08:22:09;;;;;;;11.67;1.63;;;;;;;-142.75;100.00;79780.19;5020908;28;20364;-68
2022/01/21 08:24:35;;;;;;;10.23;1.50;;;;;;;-142.75;100.00;79752.63;5011644;28;20276;-68
2022/01/21 08:27:00;;;;;;;13.73;1.70;;;;;;;-142.75;100.00;79717.16;5011649;28;20276;-68
2022/01/21 08:29:25;;;;;;;9.30;2.08;;;;;;;-142.75;100.00;79697.44;4993687;28;20029;-68
2022/01/21 08:31:51;;;;;;;12.13;2.40;;;;;;;-142.75;100.00;79673.81;5017525;28;20116;-67
2022/01/21 08:34:16;;;;;;;8.52;1.75;;;;;;;-142.75;100.00;79693.50;5031181;28;20367;-68
2022/01/21 08:36:43;;;;;;;10.45;2.03;;;;;;;-142.75;100.00;79669.88;5013184;28;20026;-69
2022/01/21 08:39:09;;;;;;;22.90;2.30;;;;;;;-142.75;100.00;79636.38;5030852;28;20030;-68
2022/01/21 08:41:34;;;;;;;12.20;1.95;;;;;;;-142.75;100.00;79642.28;5030708;28;20028;-68
2022/01/21 08:43:59;;;;;;;12.95;2.40;;;;;;;-142.75;100.00;79630.47;5013118;28;20491;-68
2022/01/21 08:46:25;;;;;;;9.17;1.60;;;;;;;-142.75;100.00;79604.88;5030160;28;20064;-69
2022/01/21 08:48:51;;;;;;;11.67;2.37;;;;;;;-142.75;100.00;79587.13;5012634;28;20296;-68
2022/01/21 08:51:24;;;;;;;9.88;1.65;;;;;;;-142.75;100.00;79547.72;5030920;28;20816;-68
2022/01/21 08:53:50;;;;;;;10.87;1.77;;;;;;;-142.75;100.00;79516.22;5030694;28;20021;-68
2022/01/21 08:56:17;;;;;;;12.30;1.70;;;;;;;-142.75;100.00;79496.50;5030687;28;20025;-68
2022/01/21 08:58:44;;;;;;;12.57;1.87;;;;;;;-142.75;100.00;79480.75;5030881;28;20021;-69
2022/01/21 09:01:11;;;;;;;10.07;1.47;;;;;;;-142.75;100.00;79451.22;5031491;28;20054;-69
2022/01/21 09:03:38;;;;;;;;;;;;;;;-142.75;100.00;79417.72;5031728;28;20029;-68
2022/01/21 09:06:03;;;;;;;12.00;1.77;;;;;;;-142.75;100.00;79411.81;5031100;28;19928;-68
2022/01/21 09:08:30;;;;;;;12.40;1.83;;;;;;;-142.75;100.00;79390.13;5031177;28;20030;-69
2022/01/21 09:10:57;;;;;;;15.50;2.47;;;;;;;-142.75;100.00;79384.22;5013779;28;20029;-69
2022/01/21 09:13:26;;;;;;;10.10;1.20;;;;;;;-142.75;100.00;79382.25;5017174;28;20029;-68
2022/01/21 09:15:52;;;;;;;13.13;1.67;;;;;;;-142.75;100.00;79398.03;5011291;28;20543;-69
2022/01/21 09:18:19;;;;;;;13.32;1.50;;;;;;;-142.75;100.00;79380.28;5011398;28;20096;-69
2022/01/21 09:20:46;;;;;;;5.70;1.33;;;;;;;-142.75;100.00;79419.69;5011447;28;20507;-69
2022/01/21 09:23:11;;;;;;;7.13;1.67;;;;;;;-142.75;100.00;79401.97;5011649;28;20451;-69
2022/01/21 09:25:37;;;;;;;17.63;3.20;;;;;;;-142.75;100.00;79427.56;5011533;28;20046;-69
2022/01/21 09:28:03;;;;;;;13.07;1.70;;;;;;;-142.75;100.00;79403.94;5011027;28;20041;-69
2022/01/21 09:30:28;;;;;;;11.70;1.80;;;;;;;-142.75;100.00;79401.97;4992543;28;20050;-69
2022/01/21 09:32:54;;;;;;;13.30;2.20;;;;;;;-142.75;100.00;79396.06;5011326;28;20101;-68
2022/01/21 09:35:20;;;;;;;17.65;2.33;;;;;;;-142.75;100.00;79405.91;5011178;28;20072;-69
2022/01/21 09:37:45;;;;;;;15.43;1.73;;;;;;;-142.75;100.00;79427.56;5011285;28;20026;-69
2022/01/21 09:40:12;;;;;;;16.92;2.30;;;;;;;-142.75;100.00;79433.47;5010996;28;20442;-69
2022/01/21 09:42:37;;;;;;;;;;;;;;;-142.75;100.00;79433.47;5011817;28;20068;-69
2022/01/21 09:45:09;;;;;;;9.93;1.63;;;;;;;-142.75;100.00;79433.47;5011256;28;20004;-69
2022/01/21 09:47:44;;;;;;;11.87;1.40;;;;;;;-142.75;100.00;79429.53;5011247;28;20053;-69
2022/01/21 09:50:20;;;;;;;9.73;1.10;;;;;;;-142.75;100.00;79439.38;5030477;28;20368;-69
2022/01/21 09:52:50;;;;;;;7.73;1.63;;;;;;;-142.75;100.00;79439.38;5030842;28;20030;-68
2022/01/21 09:55:20;;;;;;;9.57;1.87;;;;;;;-142.75;100.00;79403.94;5030800;28;20033;-69
2022/01/21 09:57:47;;;;;;;9.33;1.30;;;;;;;-142.75;100.00;79413.78;5030401;28;20026;-69
2022/01/21 10:00:14;;;;;;;10.63;1.63;;;;;;;-142.75;100.00;79405.91;5030539;28;20083;-69
2022/01/21 10:02:40;;;;;;;18.20;2.87;;;;;;;-142.75;100.00;79437.41;5030276;28;20041;-69
2022/01/21 10:05:06;;;;;;;;;;;;;;;-142.75;100.00;79443.31;5031051;28;20032;-69
2022/01/21 10:07:34;;;;;;;10.80;1.50;;;;;;;-142.75;100.00;79466.97;5030604;28;20302;-69
2022/01/21 10:10:06;;;;;;;12.15;1.33;;;;;;;-142.75;100.00;79476.81;5030292;28;20030;-69
2022/01/21 10:12:31;;;;;;;8.82;1.67;;;;;;;-142.75;100.00;79480.75;5029963;28;20476;-69
2022/01/21 10:14:57;;;;;;;17.65;1.85;;;;;;;-142.75;100.00;79486.66;5012819;28;20087;-68
2022/01/21 10:17:22;;;;;;;11.15;1.70;;;;;;;-142.75;100.00;79484.69;5030652;28;20105;-69
2022/01/21 10:19:51;;;;;;;8.00;1.05;;;;;;;-142.75;100.00;79445.28;5030086;28;20475;-69
2022/01/21 10:22:21;;;;;;;11.93;1.43;;;;;;;-142.75;100.00;79421.66;5030516;28;20032;-68
2022/01/21 10:24:58;;;;;;;14.40;1.57;;;;;;;-142.75;100.00;79435.44;5030472;28;20033;-69
2022/01/21 10:27:26;;;;;;;8.23;0.93;;;;;;;-142.75;100.00;79447.28;5030464;28;20025;-69
2022/01/21 10:29:52;;;;;;;9.57;1.30;;;;;;;-142.75;100.00;79449.25;5029914;28;20087;-69
2022/01/21 10:32:30;;;;;;;;;;;;;;;-142.75;100.00;79461.06;5030716;28;20034;-69
2022/01/21 10:34:56;;;;;;;7.73;0.90;;;;;;;-142.75;100.00;79451.22;5030374;28;19944;-69
2022/01/21 10:37:34;;;;;;;7.68;1.02;;;;;;;-142.75;100.00;79441.34;5030434;28;20495;-69
2022/01/21 10:40:03;;;;;;;8.13;0.97;;;;;;;-142.75;100.00;79439.38;5030114;28;20026;-69
2022/01/21 10:42:29;;;;;;;14.00;1.40;;;;;;;-142.75;100.00;79431.50;5030134;28;20026;-69
2022/01/21 10:44:55;;;;;;;6.07;1.08;;;;;;;-142.75;100.00;79421.66;5030364;28;20646;-69
2022/01/21 10:47:29;;;;;;;6.88;1.10;;;;;;;-142.75;100.00;79409.84;5030244;28;20025;-69
2022/01/21 10:50:01;;;;;;;12.77;1.10;;;;;;;-142.75;100.00;79405.91;5029775;28;20040;-69
2022/01/21 10:52:34;;;;;;;9.87;1.30;;;;;;;-142.75;100.00;79413.78;5030230;28;20038;-69
2022/01/21 10:54:59;;;;;;;8.07;1.37;;;;;;;-142.75;100.00;79413.78;5012467;28;20402;-69
2022/01/21 10:57:27;;;;;;;7.45;1.10;;;;;;;-142.75;100.00;79417.72;5030228;28;20033;-69
2022/01/21 11:00:09;;;;;;;10.73;1.20;;;;;;;-142.75;100.00;79439.38;5029908;28;20029;-69
2022/01/21 11:02:47;;;;;;;10.53;0.93;;;;;;;-142.75;100.00;79431.50;5030013;28;20022;-69
2022/01/21 11:05:27;;;;;;;9.10;0.90;;;;;;;-142.75;100.00;79437.41;5012217;28;20021;-69
2022/01/21 11:08:03;;;;;;;13.03;1.37;;;;;;;-142.75;100.00;79447.28;5029809;28;20021;-67
2022/01/21 11:10:31;;;;;;;8.73;0.90;;;;;;;-142.75;100.00;79455.16;5031417;28;20708;-69
2022/01/21 11:12:56;;;;;;;11.43;1.23;;;;;;;-142.75;100.00;79465.00;5033509;28;20060;-69
2022/01/21 11:15:22;;;;;;;7.72;1.23;;;;;;;-142.75;100.00;79461.06;5033541;28;20056;-69
2022/01/21 11:17:57;;;;;;;13.77;1.38;;;;;;;-142.75;100.00;79449.25;5033357;28;20036;-68
2022/01/21 11:20:31;;;;;;;16.83;1.97;;;;;;;-142.75;100.00;79443.31;5015846;28;20021;-69
2022/01/21 11:22:59;;;;;;;12.33;1.30;;;;;;;-142.75;100.00;79433.47;5033371;28;20056;-69
2022/01/21 11:25:44;;;;;;;11.57;1.40;;;;;;;-142.75;100.00;79425.59;5033512;28;20029;-69
2022/01/21 11:28:11;;;;;;;9.53;1.70;;;;;;;-142.75;100.00;79433.47;5032860;28;20025;-69
2022/01/21 11:30:37;;;;;;;13.70;1.30;;;;;;;-142.75;100.00;79425.59;5033362;28;20039;-69
2022/01/21 11:33:02;;;;;;;8.70;1.38;;;;;;;-142.75;100.00;79427.56;5015418;28;20033;-69
2022/01/21 11:35:29;;;;;;;10.60;1.10;;;;;;;-142.75;100.00;79429.53;5033215;28;20025;-69
2022/01/21 11:37:54;;;;;;;20.77;1.73;;;;;;;-142.75;100.00;79425.59;5032858;28;20040;-68
2022/01/21 11:40:21;;;;;;;8.65;1.35;;;;;;;-142.75;100.00;79421.66;5033136;28;20387;-69
2022/01/21 11:42:47;;;;;;;10.07;1.30;;;;;;;-142.75;100.00;79417.72;5032940;28;20118;-69
2022/01/21 11:45:30;;;;;;;11.27;1.27;;;;;;;-142.75;100.00;79413.78;5033090;28;20021;-69
2022/01/21 11:48:49;;;;;;;12.63;1.63;;;;;;;-142.75;100.00;79427.56;5014984;28;20410;-69
2022/01/21 11:50:52;;;;;;;12.20;1.73;;;;;;;-142.75;100.00;79394.09;5032777;28;20124;-69
2022/01/21 11:53:45;;;;;;;8.37;1.40;;;;;;;-142.75;100.00;79372.41;5032740;28;20044;-69
2022/01/21 11:56:45;;;;;;;9.30;1.30;;;;;;;-142.75;100.00;79293.63;5032729;28;20029;-69